createdAt,value
2023-03-12T00:01:46.442Z,4.00
2023-03-12T00:03:51.621Z,3.90
2023-03-12T00:05:56.066Z,3.90
2023-03-12T00:08:00.893Z,3.90
2023-03-12T00:10:04.587Z,4.00
2023-03-12T00:12:10.255Z,4.00
2023-03-12T00:14:13.591Z,4.00
2023-03-12T00:16:17.115Z,4.00
2023-03-12T00:18:20.639Z,4.00
2023-03-12T00:20:24.089Z,4.10
2023-03-12T00:22:27.442Z,4.10
2023-03-12T00:24:33.205Z,4.20
2023-03-12T00:26:36.653Z,4.20
2023-03-12T00:28:41.490Z,4.30
2023-03-12T00:30:45.145Z,4.40
2023-03-12T00:32:48.509Z,4.50
2023-03-12T00:34:55.466Z,4.50
2023-03-12T00:37:00.013Z,4.50
2023-03-12T00:42:19.462Z,4.60
2023-03-12T00:44:24.335Z,4.80
2023-03-12T00:46:28.039Z,4.80
2023-03-12T00:48:36.537Z,4.90
2023-03-12T00:50:40.417Z,4.90
2023-03-12T00:52:44.186Z,4.90
2023-03-12T00:54:47.897Z,5.00
2023-03-12T00:56:51.325Z,5.00
2023-03-12T00:58:54.954Z,5.00
2023-03-12T01:01:00.070Z,5.10
2023-03-12T01:03:04.165Z,5.10
2023-03-12T01:05:08.436Z,5.20
2023-03-12T01:07:11.919Z,5.20
2023-03-12T01:09:51.678Z,5.20
2023-03-12T01:11:55.066Z,5.20
2023-03-12T01:14:00.099Z,5.10
2023-03-12T01:16:05.129Z,5.20
2023-03-12T01:18:14.264Z,5.20
2023-03-12T01:20:18.796Z,5.20
2023-03-12T01:22:22.263Z,5.30
2023-03-12T01:24:25.852Z,5.30
2023-03-12T01:26:29.394Z,5.30
2023-03-12T01:28:32.760Z,5.40
2023-03-12T01:30:36.383Z,5.40
2023-03-12T01:32:41.477Z,5.50
2023-03-12T01:34:44.908Z,5.50
2023-03-12T01:36:48.781Z,5.50
2023-03-12T01:38:52.764Z,5.60
2023-03-12T01:40:56.402Z,5.60
2023-03-12T01:43:00.663Z,5.60
2023-03-12T01:45:05.296Z,5.70
2023-03-12T01:47:08.738Z,5.60
2023-03-12T01:49:15.668Z,5.60
2023-03-12T01:51:19.465Z,5.60
2023-03-12T01:53:23.036Z,5.60
2023-03-12T01:55:26.678Z,5.50
2023-03-12T01:57:36.736Z,5.40
2023-03-12T01:59:42.796Z,5.40
2023-03-12T02:01:52.064Z,5.40
2023-03-12T02:03:55.880Z,5.30
2023-03-12T02:06:03.702Z,5.30
2023-03-12T02:08:07.315Z,5.30
2023-03-12T02:10:11.981Z,5.30
2023-03-12T02:12:15.684Z,5.30
2023-03-12T02:15:14.561Z,5.30
2023-03-12T02:17:18.146Z,5.30
2023-03-12T02:19:28.828Z,5.30
2023-03-12T02:21:36.296Z,5.30
2023-03-12T02:23:42.868Z,5.30
2023-03-12T02:25:48.231Z,5.30
2023-03-12T02:27:51.872Z,5.20
2023-03-12T02:33:31.438Z,5.20
2023-03-12T02:35:34.913Z,5.10
2023-03-12T02:37:48.027Z,5.10
2023-03-12T02:39:55.218Z,5.10
2023-03-12T02:42:00.163Z,5.10
2023-03-12T02:44:09.961Z,5.00
2023-03-12T02:46:13.901Z,5.00
2023-03-12T02:48:17.680Z,5.00
2023-03-12T02:50:21.543Z,5.00
2023-03-12T02:52:25.069Z,5.00
2023-03-12T02:54:28.752Z,5.00
2023-03-12T02:56:32.558Z,5.00
2023-03-12T02:58:38.635Z,5.00
2023-03-12T03:00:42.526Z,5.00
2023-03-12T03:02:45.978Z,5.00
2023-03-12T03:04:50.458Z,5.10
2023-03-12T03:06:53.970Z,5.10
2023-03-12T03:08:57.823Z,5.10
2023-03-12T03:11:03.189Z,5.10
2023-03-12T03:13:06.712Z,5.20
2023-03-12T03:15:12.412Z,5.20
2023-03-12T03:17:16.279Z,5.10
2023-03-12T03:19:19.888Z,5.10
2023-03-12T03:21:23.631Z,5.00
2023-03-12T03:23:27.628Z,5.00
2023-03-12T03:25:31.201Z,5.00
2023-03-12T03:27:35.595Z,5.00
2023-03-12T03:29:39.390Z,4.90
2023-03-12T03:31:44.591Z,4.90
2023-03-12T03:33:48.061Z,4.90
2023-03-12T03:35:51.936Z,4.90
2023-03-12T03:37:56.515Z,4.90
2023-03-12T03:40:00.161Z,5.00
2023-03-12T03:42:03.531Z,5.00
2023-03-12T03:44:08.725Z,5.00
2023-03-12T03:46:12.475Z,5.00
2023-03-12T03:48:17.890Z,5.00
2023-03-12T03:50:21.637Z,5.10
2023-03-12T03:52:25.248Z,5.10
2023-03-12T03:54:29.731Z,5.20
2023-03-12T03:59:50.158Z,5.30
2023-03-12T04:01:53.726Z,5.40
2023-03-12T04:03:59.100Z,5.50
2023-03-12T04:06:03.407Z,5.60
2023-03-12T04:08:07.372Z,5.60
2023-03-12T04:10:12.144Z,5.70
2023-03-12T04:12:16.034Z,5.80
2023-03-12T04:14:19.831Z,5.80
2023-03-12T04:16:23.422Z,5.80
2023-03-12T04:18:30.251Z,5.80
2023-03-12T04:20:35.363Z,5.90
2023-03-12T04:22:38.755Z,5.90
2023-03-12T04:24:42.722Z,5.90
2023-03-12T04:26:46.094Z,5.80
2023-03-12T04:28:50.931Z,5.90
2023-03-12T04:30:59.708Z,5.90
2023-03-12T04:33:03.619Z,5.90
2023-03-12T04:35:07.727Z,5.90
2023-03-12T04:37:15.803Z,5.90
2023-03-12T04:39:20.564Z,5.90
2023-03-12T04:41:24.117Z,5.80
2023-03-12T04:43:29.036Z,5.80
2023-03-12T04:45:32.929Z,5.90
2023-03-12T04:47:36.483Z,5.90
2023-03-12T04:49:43.601Z,5.90
2023-03-12T04:51:47.217Z,6.00
2023-03-12T04:53:55.507Z,6.00
2023-03-12T04:56:00.375Z,6.10
2023-03-12T04:58:03.997Z,6.10
2023-03-12T05:00:13.326Z,6.10
2023-03-12T05:02:17.151Z,6.10
2023-03-12T05:04:20.730Z,6.10
2023-03-12T05:08:25.111Z,6.10
2023-03-12T05:10:30.150Z,6.10
2023-03-12T05:12:34.072Z,6.00
2023-03-12T05:14:39.543Z,5.90
2023-03-12T05:16:43.446Z,5.80
2023-03-12T05:18:47.591Z,5.60
2023-03-12T05:21:00.611Z,5.50
2023-03-12T05:23:04.351Z,5.50
2023-03-12T05:25:09.377Z,5.50
2023-03-12T05:27:14.672Z,5.60
2023-03-12T05:29:18.538Z,5.70
2023-03-12T05:31:22.546Z,5.80
2023-03-12T05:33:27.434Z,5.90
2023-03-12T05:35:31.771Z,5.90
2023-03-12T05:37:36.868Z,5.90
2023-03-12T05:39:46.890Z,6.00
2023-03-12T05:41:50.816Z,6.00
2023-03-12T05:43:57.873Z,6.00
2023-03-12T05:46:02.084Z,6.10
2023-03-12T05:48:06.103Z,6.20
2023-03-12T05:50:13.468Z,6.30
2023-03-12T05:52:17.365Z,6.40
2023-03-12T05:54:21.338Z,6.50
2023-03-12T05:56:25.898Z,6.50
2023-03-12T05:58:30.395Z,6.50
2023-03-12T06:00:38.216Z,6.60
2023-03-12T06:02:41.806Z,6.60
2023-03-12T06:04:45.425Z,6.60
2023-03-12T06:07:46.718Z,6.70
2023-03-12T06:09:50.513Z,6.70
2023-03-12T06:11:54.181Z,6.70
2023-03-12T06:13:58.175Z,6.70
2023-03-12T06:16:09.680Z,6.80
2023-03-12T06:18:13.747Z,6.80
2023-03-12T06:20:18.006Z,6.80
2023-03-12T06:22:23.489Z,6.80
2023-03-12T06:24:27.811Z,6.80
2023-03-12T06:26:31.317Z,6.80
2023-03-12T06:28:35.332Z,6.80
2023-03-12T06:30:39.228Z,6.70
2023-03-12T06:32:44.291Z,6.60
2023-03-12T06:34:49.364Z,6.50
2023-03-12T06:36:53.350Z,6.50
2023-03-12T06:38:57.384Z,6.40
2023-03-12T06:41:02.016Z,6.40
2023-03-12T06:43:12.195Z,6.40
2023-03-12T06:45:16.592Z,6.30
2023-03-12T06:47:20.754Z,6.30
2023-03-12T06:49:27.019Z,6.40
2023-03-12T06:51:30.646Z,6.40
2023-03-12T06:53:35.183Z,6.40
2023-03-12T06:55:40.467Z,6.50
2023-03-12T06:57:44.448Z,6.60
2023-03-12T06:59:50.531Z,6.70
2023-03-12T07:01:56.554Z,6.80
2023-03-12T07:04:00.772Z,6.80
2023-03-12T07:06:06.859Z,6.90
2023-03-12T07:08:10.674Z,6.90
2023-03-12T07:14:01.015Z,6.90
2023-03-12T07:16:04.967Z,6.90
2023-03-12T07:18:09.737Z,7.00
2023-03-12T07:20:14.566Z,7.00
2023-03-12T07:24:24.329Z,7.00
2023-03-12T07:26:27.967Z,7.10
2023-03-12T07:28:31.932Z,7.10
2023-03-12T07:30:36.106Z,7.20
2023-03-12T07:32:40.224Z,7.20
2023-03-12T07:34:43.997Z,7.20
2023-03-12T07:36:48.942Z,7.20
2023-03-12T07:38:54.514Z,7.20
2023-03-12T07:40:59.110Z,7.20
2023-03-12T07:43:03.293Z,7.20
2023-03-12T07:48:22.761Z,7.20
2023-03-12T07:50:26.482Z,7.10
2023-03-12T07:52:30.401Z,7.00
2023-03-12T07:54:36.837Z,6.80
2023-03-12T07:56:40.789Z,6.60
2023-03-12T07:58:44.552Z,6.50
2023-03-12T08:00:49.549Z,6.40
2023-03-12T08:02:53.255Z,6.30
2023-03-12T08:04:57.015Z,6.30
2023-03-12T08:07:01.157Z,6.30
2023-03-12T08:09:04.905Z,6.20
2023-03-12T08:11:09.922Z,6.10
2023-03-12T08:13:13.758Z,6.00
2023-03-12T08:15:17.472Z,5.90
2023-03-12T08:17:21.479Z,5.70
2023-03-12T08:19:25.222Z,5.70
2023-03-12T08:21:28.885Z,5.60
2023-03-12T08:23:32.790Z,5.60
2023-03-12T08:25:36.928Z,5.60
2023-03-12T08:27:44.349Z,5.60
2023-03-12T08:29:47.919Z,5.70
2023-03-12T08:32:04.161Z,5.60
2023-03-12T08:34:10.573Z,5.60
2023-03-12T08:36:13.999Z,5.60
2023-03-12T08:38:18.690Z,5.50
2023-03-12T08:40:22.378Z,5.50
2023-03-12T08:42:26.028Z,5.50
2023-03-12T08:45:08.451Z,5.60
2023-03-12T08:47:13.900Z,5.50
2023-03-12T08:49:17.612Z,5.60
2023-03-12T08:51:21.782Z,5.60
2023-03-12T08:53:25.724Z,5.60
2023-03-12T08:56:23.070Z,5.50
2023-03-12T08:58:26.708Z,5.50
2023-03-12T09:00:30.391Z,5.50
2023-03-12T09:02:36.129Z,5.50
2023-03-12T09:04:40.173Z,5.60
2023-03-12T09:06:54.132Z,5.60
2023-03-12T09:08:59.564Z,5.60
2023-03-12T09:11:03.291Z,5.50
2023-03-12T09:13:08.270Z,5.50
2023-03-12T09:15:32.156Z,5.60
2023-03-12T09:17:37.340Z,5.60
2023-03-12T09:19:41.645Z,5.60
2023-03-12T09:21:45.373Z,5.70
2023-03-12T09:23:49.555Z,5.70
2023-03-12T09:25:55.967Z,5.80
2023-03-12T09:28:02.295Z,5.70
2023-03-12T09:30:07.958Z,5.80
2023-03-12T09:32:11.991Z,5.90
2023-03-12T09:35:10.063Z,5.90
2023-03-12T09:37:15.046Z,6.00
2023-03-12T09:39:18.585Z,6.10
2023-03-12T09:41:24.122Z,6.20
2023-03-12T09:43:30.244Z,6.20
2023-03-12T09:45:52.374Z,6.30
2023-03-12T09:47:56.618Z,6.30
2023-03-12T09:50:02.972Z,6.30
2023-03-12T09:52:12.397Z,6.30
2023-03-12T09:54:23.973Z,6.40
2023-03-12T09:56:27.435Z,6.40
2023-03-12T09:58:54.757Z,6.30
2023-03-12T10:01:01.633Z,6.30
2023-03-12T10:03:23.996Z,6.30
2023-03-12T10:05:33.090Z,6.30
2023-03-12T10:07:37.517Z,6.40
2023-03-12T10:13:52.755Z,6.20
2023-03-12T10:16:07.065Z,6.20
2023-03-12T10:18:16.646Z,6.40
2023-03-12T10:21:02.074Z,6.40
2023-03-12T10:23:07.938Z,6.50
2023-03-12T10:25:17.483Z,6.50
2023-03-12T10:27:21.062Z,6.60
2023-03-12T10:29:25.705Z,6.60
2023-03-12T10:31:32.205Z,6.60
2023-03-12T10:33:52.529Z,6.60
2023-03-12T10:35:56.203Z,6.50
2023-03-12T10:38:00.184Z,6.40
2023-03-12T10:40:06.723Z,6.50
2023-03-12T10:42:15.425Z,6.60
2023-03-12T10:46:53.443Z,6.60
2023-03-12T10:49:31.013Z,6.60
2023-03-12T10:51:34.456Z,6.80
2023-03-12T10:53:59.900Z,6.90
2023-03-12T10:56:07.932Z,6.90
2023-03-12T10:58:24.988Z,6.90
2023-03-12T11:00:29.342Z,7.00
2023-03-12T11:02:35.914Z,7.10
2023-03-12T11:04:39.351Z,7.10
2023-03-12T11:06:43.616Z,7.20
2023-03-12T11:08:47.328Z,7.10
2023-03-12T11:10:51.016Z,7.20
2023-03-12T11:12:57.349Z,7.20
2023-03-12T11:15:00.763Z,7.30
2023-03-12T11:17:22.489Z,7.30
2023-03-12T11:19:32.303Z,7.40
2023-03-12T11:21:37.265Z,7.50
2023-03-12T11:23:43.334Z,7.50
2023-03-12T11:25:51.924Z,7.60
2023-03-12T11:27:56.164Z,7.70
2023-03-12T11:29:59.827Z,7.80
2023-03-12T11:32:07.758Z,7.90
2023-03-12T11:34:24.794Z,8.00
2023-03-12T11:36:37.433Z,8.00
2023-03-12T11:38:42.307Z,8.20
2023-03-12T11:40:54.638Z,8.30
2023-03-12T12:15:05.936Z,9.30
2023-03-12T12:17:16.141Z,9.40
2023-03-12T12:19:25.267Z,9.40
2023-03-12T12:21:40.840Z,9.40
2023-03-12T12:23:48.277Z,9.50
2023-03-12T12:25:58.931Z,9.60
2023-03-12T12:28:20.470Z,9.60
2023-03-12T12:30:28.872Z,9.80
2023-03-12T12:32:36.852Z,9.70
2023-03-12T12:35:17.929Z,9.70
2023-03-12T12:37:25.445Z,9.70
2023-03-12T12:39:34.881Z,9.70
2023-03-12T12:41:39.405Z,9.70
2023-03-12T12:43:50.270Z,9.70
2023-03-12T12:46:17.602Z,9.90
2023-03-12T12:48:22.258Z,10.10
2023-03-12T12:50:27.709Z,10.20
2023-03-12T12:52:31.267Z,10.30
2023-03-12T12:54:37.510Z,10.50
2023-03-12T12:56:43.167Z,10.70
2023-03-12T12:59:26.328Z,10.80
2023-03-12T13:01:31.714Z,10.80
2023-03-12T13:03:35.288Z,10.70
2023-03-12T13:05:50.464Z,10.70
2023-03-12T13:07:54.239Z,10.70
2023-03-12T13:09:59.853Z,10.70
2023-03-12T13:12:23.438Z,10.70
2023-03-12T13:14:40.868Z,10.70
2023-03-12T13:16:48.795Z,10.80
2023-03-12T13:18:58.918Z,10.80
2023-03-12T13:21:19.989Z,10.90
2023-03-12T13:23:31.052Z,11.00
2023-03-12T13:26:00.228Z,11.20
2023-03-12T13:28:24.546Z,11.20
2023-03-12T13:30:46.856Z,11.50
2023-03-12T13:33:14.809Z,11.70
2023-03-12T13:35:31.650Z,11.90
2023-03-12T13:38:01.030Z,12.00
2023-03-12T13:40:10.777Z,12.20
2023-03-12T13:42:42.067Z,12.20
2023-03-12T13:44:45.814Z,12.10
2023-03-12T13:46:50.981Z,12.10
2023-03-12T13:48:57.929Z,12.10
2023-03-12T13:51:02.971Z,12.00
2023-03-12T13:53:07.451Z,12.00
2023-03-12T13:55:22.925Z,12.00
2023-03-12T13:57:31.678Z,12.00
2023-03-12T13:59:35.264Z,11.90
2023-03-12T14:01:44.414Z,11.90
2023-03-12T14:03:49.911Z,12.00
2023-03-12T14:06:36.364Z,12.00
2023-03-12T14:08:59.473Z,12.10
2023-03-12T14:11:09.694Z,12.10
2023-03-12T14:13:24.966Z,12.00
2023-03-12T14:15:31.203Z,12.00
2023-03-12T14:17:35.240Z,12.00
2023-03-12T14:19:46.392Z,12.10
2023-03-12T14:21:50.995Z,12.30
2023-03-12T14:23:57.210Z,12.30
2023-03-12T14:26:03.922Z,12.40
2023-03-12T14:28:17.380Z,12.30
2023-03-12T14:30:23.498Z,12.30
2023-03-12T14:32:29.688Z,12.30
2023-03-12T14:34:35.211Z,12.30
2023-03-12T14:36:40.366Z,12.40
2023-03-12T14:38:45.230Z,12.40
2023-03-12T14:40:52.307Z,12.40
2023-03-12T14:44:09.618Z,12.50
2023-03-12T14:46:19.107Z,12.50
2023-03-12T14:48:23.964Z,12.60
2023-03-12T14:50:28.616Z,12.70
2023-03-12T14:53:12.048Z,12.70
2023-03-12T14:55:18.494Z,12.90
2023-03-12T14:57:24.825Z,13.10
2023-03-12T14:59:31.376Z,13.20
2023-03-12T15:01:39.800Z,13.50
2023-03-12T15:03:44.504Z,13.50
2023-03-12T15:05:50.332Z,13.70
2023-03-12T15:07:54.484Z,13.70
2023-03-12T15:09:58.242Z,13.90
2023-03-12T15:12:50.770Z,13.90
2023-03-12T15:15:00.933Z,13.90
2023-03-12T15:17:05.225Z,14.00
2023-03-12T15:19:10.733Z,14.00
2023-03-12T15:21:14.539Z,14.10
2023-03-12T15:23:18.574Z,14.20
2023-03-12T15:25:38.604Z,14.30
2023-03-12T15:27:44.220Z,14.40
2023-03-12T15:29:47.697Z,14.50
2023-03-12T15:31:56.703Z,14.70
2023-03-12T15:34:04.207Z,14.60
2023-03-12T15:36:17.679Z,14.50
2023-03-12T15:38:24.409Z,14.40
2023-03-12T15:40:28.670Z,14.40
2023-03-12T15:42:35.834Z,14.20
2023-03-12T15:44:45.772Z,14.20
2023-03-12T15:46:49.789Z,14.20
2023-03-12T15:48:54.187Z,14.00
2023-03-12T15:50:57.679Z,14.00
2023-03-12T15:53:26.738Z,13.90
2023-03-12T15:55:30.858Z,13.90
2023-03-12T15:57:35.304Z,13.90
2023-03-12T15:59:40.310Z,13.90
2023-03-12T16:01:47.632Z,13.90
2023-03-12T16:03:51.621Z,13.90
2023-03-12T16:05:55.642Z,13.90
2023-03-12T16:07:59.450Z,13.90
2023-03-12T16:10:02.921Z,14.00
2023-03-12T16:12:07.052Z,13.90
2023-03-12T16:14:18.002Z,13.90
2023-03-12T16:16:22.960Z,13.90
2023-03-12T16:18:26.594Z,13.80
2023-03-12T16:20:30.523Z,13.80
2023-03-12T16:22:33.963Z,13.80
2023-03-12T16:24:37.782Z,13.70
2023-03-12T16:26:46.461Z,13.70
2023-03-12T16:28:50.598Z,13.70
2023-03-12T16:30:54.141Z,13.60
2023-03-12T16:33:26.560Z,13.60
2023-03-12T16:35:31.544Z,13.60
2023-03-12T16:37:35.273Z,13.60
2023-03-12T16:39:38.784Z,13.60
2023-03-12T16:42:01.800Z,13.50
2023-03-12T16:44:05.729Z,13.50
2023-03-12T16:46:09.903Z,13.60
2023-03-12T16:48:15.993Z,13.60
2023-03-12T16:50:23.693Z,13.70
2023-03-12T16:52:28.130Z,13.70
2023-03-12T16:54:31.916Z,13.80
2023-03-12T16:56:35.536Z,13.80
2023-03-12T16:58:39.425Z,13.90
2023-03-12T17:00:43.237Z,13.90
2023-03-12T17:02:46.851Z,13.90
2023-03-12T17:04:51.282Z,14.00
2023-03-12T17:06:56.643Z,14.00
2023-03-12T17:09:56.561Z,14.10
2023-03-12T17:12:01.240Z,14.10
2023-03-12T17:14:06.622Z,14.10
2023-03-12T17:16:12.454Z,14.10
2023-03-12T17:18:16.252Z,14.10
2023-03-12T17:20:21.246Z,14.10
2023-03-12T17:22:26.887Z,14.10
2023-03-12T17:24:30.778Z,14.00
2023-03-12T17:26:35.383Z,13.90
2023-03-12T17:28:39.244Z,13.90
2023-03-12T17:30:44.122Z,13.90
2023-03-12T17:32:48.038Z,13.90
2023-03-12T17:37:14.630Z,13.80
2023-03-12T17:39:19.672Z,13.80
2023-03-12T17:41:26.857Z,13.90
2023-03-12T17:43:31.055Z,13.90
2023-03-12T17:45:34.583Z,13.80
2023-03-12T17:47:38.592Z,13.70
2023-03-12T17:49:50.308Z,13.70
2023-03-12T17:52:59.544Z,13.60
2023-03-12T17:55:06.716Z,13.60
2023-03-12T17:57:10.499Z,13.70
2023-03-12T17:59:14.059Z,13.70
2023-03-12T18:01:17.859Z,13.60
2023-03-12T18:03:21.675Z,13.60
2023-03-12T18:05:25.394Z,13.70
2023-03-12T18:07:29.150Z,13.60
2023-03-12T18:09:32.714Z,13.60
2023-03-12T18:11:37.412Z,13.60
2023-03-12T18:13:41.733Z,13.60
2023-03-12T18:15:48.800Z,13.50
2023-03-12T18:18:07.874Z,13.60
2023-03-12T18:20:17.905Z,13.50
2023-03-12T18:22:24.573Z,13.60
2023-03-12T18:24:28.218Z,13.60
2023-03-12T18:26:31.638Z,13.60
2023-03-12T18:29:14.147Z,13.70
2023-03-12T18:31:19.034Z,13.70
2023-03-12T18:33:30.965Z,13.80
2023-03-12T18:35:35.248Z,13.70
2023-03-12T18:37:59.237Z,13.80
2023-03-12T18:40:02.887Z,13.70
2023-03-12T18:42:06.642Z,13.70
2023-03-12T18:44:10.206Z,13.80
2023-03-12T18:46:14.523Z,13.80
2023-03-12T18:48:19.452Z,13.90
2023-03-12T18:50:22.984Z,14.00
2023-03-12T18:52:41.740Z,13.90
2023-03-12T18:54:45.192Z,13.90
2023-03-12T18:56:48.794Z,13.90
2023-03-12T18:58:52.123Z,13.90
2023-03-12T19:00:55.729Z,13.90
2023-03-12T19:02:59.600Z,14.00
2023-03-12T19:05:05.644Z,14.00
2023-03-12T19:07:09.092Z,14.00
2023-03-12T19:09:12.515Z,14.00
2023-03-12T19:11:16.774Z,14.00
2023-03-12T19:13:34.753Z,14.00
2023-03-12T19:15:38.470Z,14.00
2023-03-12T19:17:42.788Z,14.00
2023-03-12T19:19:46.093Z,14.00
2023-03-12T19:21:50.850Z,14.00
2023-03-12T19:23:55.182Z,13.90
2023-03-12T19:26:05.113Z,13.90
2023-03-12T19:28:08.834Z,13.90
2023-03-12T19:30:14.007Z,13.90
2023-03-12T19:32:17.652Z,14.00
2023-03-12T19:34:22.050Z,13.90
2023-03-12T19:36:31.404Z,14.00
2023-03-12T19:38:36.507Z,14.00
2023-03-12T19:40:40.054Z,14.10
2023-03-12T19:43:01.501Z,14.10
2023-03-12T19:45:05.523Z,14.20
2023-03-12T19:47:08.872Z,14.10
2023-03-12T19:49:12.521Z,14.20
2023-03-12T19:51:16.190Z,14.10
2023-03-12T19:53:20.223Z,14.10
2023-03-12T19:55:24.981Z,14.10
2023-03-12T19:57:28.965Z,14.10
2023-03-12T19:59:32.415Z,14.10
2023-03-12T20:01:36.235Z,14.10
2023-03-12T20:03:43.734Z,14.10
2023-03-12T20:05:47.434Z,14.10
2023-03-12T20:07:52.617Z,14.10
2023-03-12T20:09:56.522Z,14.10
2023-03-12T20:12:01.514Z,14.10
2023-03-12T20:14:06.161Z,14.10
2023-03-12T20:16:12.633Z,14.10
2023-03-12T20:18:19.369Z,14.10
2023-03-12T20:20:22.980Z,14.20
2023-03-12T20:22:26.843Z,14.20
2023-03-12T20:24:30.607Z,14.20
2023-03-12T20:26:34.194Z,14.20
2023-03-12T20:28:39.111Z,14.20
2023-03-12T20:30:42.748Z,14.20
2023-03-12T20:32:46.324Z,14.20
2023-03-12T20:35:00.392Z,14.10
2023-03-12T20:37:04.134Z,14.10
2023-03-12T20:39:07.750Z,14.00
2023-03-12T20:41:14.503Z,14.00
2023-03-12T20:45:37.902Z,14.00
2023-03-12T20:47:41.478Z,14.00
2023-03-12T20:49:44.950Z,13.90
2023-03-12T20:51:49.518Z,14.00
2023-03-12T20:53:52.963Z,14.00
2023-03-12T20:55:56.449Z,14.00
2023-03-12T20:58:00.133Z,14.00
2023-03-12T21:06:50.492Z,14.00
2023-03-12T21:08:55.894Z,14.00
2023-03-12T21:11:12.593Z,14.00
2023-03-12T21:13:16.159Z,13.90
2023-03-12T21:15:19.668Z,13.80
2023-03-12T21:17:23.132Z,13.80
2023-03-12T21:19:28.792Z,13.70
2023-03-12T21:21:35.277Z,13.70
2023-03-12T21:23:40.131Z,13.70
2023-03-12T21:25:43.600Z,13.70
2023-03-12T21:27:50.903Z,13.60
2023-03-12T21:30:03.840Z,13.60
2023-03-12T21:32:07.555Z,13.60
2023-03-12T21:34:10.886Z,13.50
2023-03-12T21:36:15.151Z,13.50
2023-03-12T21:38:18.608Z,13.40
2023-03-12T21:40:23.423Z,13.40
2023-03-12T21:42:28.332Z,13.40
2023-03-12T21:44:31.816Z,13.30
2023-03-12T21:46:36.945Z,13.30
2023-03-12T21:48:40.622Z,13.20
2023-03-12T21:50:44.193Z,13.30
2023-03-12T21:52:50.998Z,13.30
2023-03-12T21:54:54.544Z,13.20
2023-03-12T21:57:25.370Z,13.20
2023-03-12T21:59:29.001Z,13.20
2023-03-12T22:01:32.712Z,13.20
2023-03-12T22:03:36.549Z,13.30
2023-03-12T22:05:39.998Z,13.20
2023-03-12T22:07:43.460Z,13.20
2023-03-12T22:09:47.235Z,13.20
2023-03-12T22:11:50.714Z,13.10
2023-03-12T22:14:07.242Z,13.10
2023-03-12T22:16:10.876Z,13.10
2023-03-12T22:18:14.591Z,13.10
2023-03-12T22:20:18.075Z,13.10
2023-03-12T22:22:22.151Z,13.10
2023-03-12T22:24:28.203Z,13.20
2023-03-12T22:26:32.466Z,13.20
2023-03-12T22:28:36.386Z,13.20
2023-03-12T22:31:01.789Z,13.20
2023-03-12T22:33:05.354Z,13.10
2023-03-12T22:35:09.461Z,13.10
2023-03-12T22:37:12.750Z,13.00
2023-03-12T22:39:17.276Z,13.00
2023-03-12T22:41:21.596Z,12.90
2023-03-12T22:43:26.920Z,12.90
2023-03-12T22:45:30.476Z,12.90
2023-03-12T22:47:35.403Z,13.00
2023-03-12T22:49:38.874Z,13.00
2023-03-12T22:51:42.236Z,13.10
2023-03-12T22:53:51.246Z,13.20
2023-03-12T22:55:58.993Z,13.20
2023-03-12T22:58:02.340Z,13.20
2023-03-12T23:00:09.307Z,13.20
2023-03-12T23:02:12.680Z,13.30
2023-03-12T23:04:41.260Z,13.30
2023-03-12T23:06:45.178Z,13.20
2023-03-12T23:08:48.694Z,13.20
2023-03-12T23:10:53.498Z,13.20
2023-03-12T23:12:56.922Z,13.20
2023-03-12T23:15:00.168Z,13.20
2023-03-12T23:17:03.545Z,13.30
2023-03-12T23:19:07.354Z,13.20
2023-03-12T23:21:16.346Z,13.10
2023-03-12T23:23:19.797Z,13.10
2023-03-12T23:25:28.454Z,13.10
2023-03-12T23:27:31.853Z,13.10
2023-03-12T23:29:35.269Z,13.10
2023-03-12T23:31:38.815Z,13.10
2023-03-12T23:33:42.155Z,12.90
2023-03-12T23:39:22.757Z,12.90
2023-03-12T23:41:29.415Z,12.90
2023-03-12T23:43:32.763Z,12.90
2023-03-12T23:45:36.316Z,12.90
2023-03-12T23:47:39.775Z,12.90
2023-03-12T23:49:43.264Z,12.90
2023-03-12T23:55:11.755Z,12.80
2023-03-12T23:57:16.826Z,12.80
2023-03-12T23:59:20.329Z,12.70
